createdAt,value
2022-08-05T00:00:20.673Z,14.91
2022-08-05T00:02:52.281Z,14.84
2022-08-05T00:06:02.612Z,14.86
2022-08-05T00:08:32.571Z,14.57
2022-08-05T00:11:01.344Z,14.48
2022-08-05T00:13:38.841Z,14.83
2022-08-05T00:16:12.846Z,14.81
2022-08-05T00:18:44.685Z,14.87
2022-08-05T00:21:14.774Z,14.89
2022-08-05T00:23:53.390Z,14.91
2022-08-05T00:26:33.885Z,14.74
2022-08-05T00:29:02.787Z,15.01
2022-08-05T00:31:53.255Z,14.84
2022-08-05T00:34:54.676Z,14.99
2022-08-05T00:37:14.258Z,14.99
2022-08-05T00:39:44.172Z,15.09
2022-08-05T00:42:36.957Z,15.17
2022-08-05T00:45:08.439Z,15.21
2022-08-05T00:47:56.854Z,15.30
2022-08-05T00:50:26.364Z,15.16
2022-08-05T00:52:57.625Z,15.39
2022-08-05T00:55:42.351Z,15.28
2022-08-05T00:58:14.011Z,15.45
2022-08-05T01:00:43.066Z,15.19
2022-08-05T01:03:22.654Z,15.47
2022-08-05T01:05:54.427Z,15.55
2022-08-05T01:08:39.899Z,15.64
2022-08-05T01:11:33.721Z,15.66
2022-08-05T01:14:28.328Z,15.82
2022-08-05T01:17:22.390Z,16.96
2022-08-05T01:20:01.881Z,18.49
2022-08-05T01:22:32.062Z,19.69
2022-08-05T01:25:23.723Z,20.56
2022-08-05T01:28:33.423Z,21.67
2022-08-05T01:31:13.333Z,22.13
2022-08-05T01:33:53.485Z,22.59
2022-08-05T01:36:28.406Z,22.98
2022-08-05T01:39:00.282Z,23.32
2022-08-05T01:41:36.696Z,23.71
2022-08-05T01:44:09.834Z,23.88
2022-08-05T01:46:46.304Z,24.03
2022-08-05T01:49:24.883Z,24.29
2022-08-05T01:52:01.087Z,24.38
2022-08-05T01:54:46.173Z,24.52
2022-08-05T01:58:11.072Z,24.52
2022-08-05T02:00:13.506Z,24.64
2022-08-05T02:02:55.400Z,24.55
2022-08-05T02:05:28.852Z,24.52
2022-08-05T02:08:01.372Z,24.47
2022-08-05T02:10:37.435Z,24.71
2022-08-05T02:13:16.050Z,24.99
2022-08-05T02:15:56.285Z,24.82
2022-08-05T02:18:35.032Z,24.89
2022-08-05T02:21:23.036Z,25.22
2022-08-05T02:23:55.974Z,25.48
2022-08-05T02:26:41.107Z,25.74
2022-08-05T02:29:26.107Z,25.65
2022-08-05T02:32:23.877Z,25.86
2022-08-05T02:35:13.579Z,26.02
2022-08-05T02:37:46.494Z,26.18
2022-08-05T02:40:18.174Z,26.21
2022-08-05T02:42:52.750Z,26.20
2022-08-05T02:45:28.677Z,26.18
2022-08-05T02:48:18.385Z,26.06
2022-08-05T02:50:51.196Z,25.99
2022-08-05T02:53:22.555Z,26.18
2022-08-05T02:56:00.036Z,25.91
2022-08-05T02:58:32.187Z,26.19
2022-08-05T03:01:03.342Z,26.05
2022-08-05T03:04:02.811Z,26.09
2022-08-05T03:06:55.672Z,26.28
2022-08-05T03:09:18.065Z,26.24
2022-08-05T03:12:05.736Z,26.20
2022-08-05T03:14:34.328Z,26.18
2022-08-05T03:17:14.495Z,25.84
2022-08-05T03:19:45.760Z,25.91
2022-08-05T03:22:16.533Z,26.09
2022-08-05T03:24:50.923Z,26.30
2022-08-05T03:27:21.809Z,26.45
2022-08-05T03:30:07.827Z,26.61
2022-08-05T03:32:38.807Z,26.51
2022-08-05T03:35:08.912Z,26.46
2022-08-05T03:37:46.427Z,26.48
2022-08-05T03:40:31.081Z,26.27
2022-08-05T03:43:59.131Z,26.02
2022-08-05T03:45:55.196Z,26.28
2022-08-05T03:48:29.225Z,26.31
2022-08-05T03:52:36.506Z,26.46
2022-08-05T03:55:52.580Z,26.60
2022-08-05T03:57:34.968Z,26.82
2022-08-05T04:00:15.997Z,26.49
2022-08-05T04:02:58.374Z,26.60
2022-08-05T04:05:40.116Z,26.86
2022-08-05T04:08:14.682Z,26.84
2022-08-05T04:11:02.738Z,26.62
2022-08-05T04:13:50.442Z,26.63
2022-08-05T04:16:24.217Z,26.82
2022-08-05T04:18:54.867Z,26.81
2022-08-05T04:22:09.703Z,26.80
2022-08-05T04:24:19.231Z,26.84
2022-08-05T04:26:51.803Z,27.27
2022-08-05T04:29:22.987Z,27.43
2022-08-05T04:31:51.882Z,27.48
2022-08-05T04:34:32.561Z,27.48
2022-08-05T04:37:03.241Z,27.54
2022-08-05T04:39:35.273Z,27.69
2022-08-05T04:42:04.772Z,27.80
2022-08-05T04:44:33.871Z,27.91
2022-08-05T04:47:09.154Z,27.94
2022-08-05T04:50:01.553Z,27.81
2022-08-05T04:52:29.023Z,27.78
2022-08-05T04:55:15.051Z,27.94
2022-08-05T04:57:51.461Z,27.55
2022-08-05T05:00:23.652Z,27.39
2022-08-05T05:02:52.740Z,27.26
2022-08-05T05:05:28.204Z,27.28
2022-08-05T05:08:14.104Z,27.35
2022-08-05T05:10:56.799Z,27.48
2022-08-05T05:13:26.172Z,27.53
2022-08-05T05:16:06.990Z,27.72
2022-08-05T05:18:38.952Z,27.95
2022-08-05T05:21:08.140Z,27.74
2022-08-05T05:24:01.613Z,27.91
2022-08-05T05:26:28.138Z,27.66
2022-08-05T05:29:01.365Z,27.54
2022-08-05T05:34:02.570Z,27.71
2022-08-05T05:36:32.747Z,27.79
2022-08-05T05:39:09.470Z,27.67
2022-08-05T05:41:39.985Z,27.91
2022-08-05T05:44:35.638Z,28.01
2022-08-05T05:46:57.998Z,28.24
2022-08-05T05:49:26.964Z,28.41
2022-08-05T05:51:56.170Z,28.16
2022-08-05T05:54:49.723Z,28.56
2022-08-05T05:57:19.052Z,28.47
2022-08-05T05:59:49.145Z,28.34
2022-08-05T06:02:32.362Z,27.95
2022-08-05T06:05:01.654Z,28.19
2022-08-05T06:07:41.994Z,28.37
2022-08-05T06:10:11.693Z,28.47
2022-08-05T06:12:43.763Z,28.46
2022-08-05T06:15:24.241Z,28.56
2022-08-05T06:17:54.674Z,28.63
2022-08-05T06:20:23.693Z,28.82
2022-08-05T06:22:52.411Z,28.92
2022-08-05T06:25:25.288Z,28.74
2022-08-05T06:28:21.349Z,28.50
2022-08-05T06:30:50.527Z,28.60
2022-08-05T06:33:19.607Z,28.73
2022-08-05T06:36:02.079Z,28.84
2022-08-05T06:38:36.477Z,28.78
2022-08-05T06:41:07.837Z,28.63
2022-08-05T06:43:59.755Z,28.41
2022-08-05T06:46:30.283Z,28.73
2022-08-05T06:49:01.081Z,28.81
2022-08-05T06:51:31.406Z,28.78
2022-08-05T06:54:02.789Z,28.28
2022-08-05T06:56:34.762Z,28.04
2022-08-05T06:59:09.547Z,28.20
2022-08-05T07:01:40.657Z,28.16
2022-08-05T07:04:11.164Z,28.40
2022-08-05T07:06:43.157Z,28.34
2022-08-05T07:09:11.796Z,28.47
2022-08-05T07:11:47.886Z,28.77
2022-08-05T07:14:38.314Z,28.97
2022-08-05T07:18:07.016Z,28.85
2022-08-05T07:20:31.481Z,28.74
2022-08-05T07:22:47.855Z,28.76
2022-08-05T07:25:54.417Z,28.75
2022-08-05T07:28:09.665Z,28.97
2022-08-05T07:30:43.248Z,28.67
2022-08-05T07:33:21.013Z,28.71
2022-08-05T07:36:19.889Z,28.86
2022-08-05T07:38:49.873Z,29.20
2022-08-05T07:42:08.401Z,29.28
2022-08-05T07:44:18.972Z,29.34
2022-08-05T07:46:50.334Z,29.04
2022-08-05T07:49:21.193Z,28.55
2022-08-05T07:51:54.456Z,28.35
2022-08-05T07:54:31.082Z,28.33
2022-08-05T07:57:17.890Z,28.72
2022-08-05T07:59:54.704Z,29.12
2022-08-05T08:02:31.209Z,29.38
2022-08-05T08:05:17.831Z,29.20
2022-08-05T08:07:59.209Z,29.13
2022-08-05T08:10:30.461Z,29.04
2022-08-05T08:12:59.531Z,28.64
2022-08-05T08:16:33.723Z,28.47
2022-08-05T08:18:20.894Z,28.79
2022-08-05T08:21:01.950Z,28.93
2022-08-05T08:24:01.884Z,29.31
2022-08-05T08:26:26.572Z,29.53
2022-08-05T08:29:21.823Z,29.60
2022-08-05T08:31:51.575Z,29.54
2022-08-05T08:34:30.626Z,29.59
2022-08-05T08:37:03.232Z,29.51
2022-08-05T08:39:37.572Z,29.47
2022-08-05T08:42:10.744Z,29.45
2022-08-05T08:45:22.360Z,29.34
2022-08-05T08:48:12.468Z,29.12
2022-08-05T08:51:03.870Z,29.33
2022-08-05T08:53:45.002Z,29.50
2022-08-05T08:56:14.179Z,29.46
2022-08-05T08:58:47.894Z,29.60
2022-08-05T09:01:19.048Z,29.47
2022-08-05T09:03:57.366Z,29.29
2022-08-05T09:06:32.143Z,28.97
2022-08-05T09:09:05.037Z,28.78
2022-08-05T09:11:53.637Z,28.82
2022-08-05T09:14:56.936Z,28.95
2022-08-05T09:17:41.144Z,28.89
2022-08-05T09:20:08.518Z,28.84
2022-08-05T09:23:19.484Z,28.92
2022-08-05T09:26:06.702Z,29.05
2022-08-05T09:28:39.904Z,29.18
2022-08-05T09:32:38.960Z,29.16
2022-08-05T09:34:09.657Z,29.19
2022-08-05T09:36:59.341Z,28.97
2022-08-05T09:39:41.614Z,29.01
2022-08-05T09:42:24.399Z,29.05
2022-08-05T09:45:17.814Z,28.80
2022-08-05T09:47:55.060Z,28.78
2022-08-05T09:50:43.829Z,28.71
2022-08-05T09:53:22.888Z,28.77
2022-08-05T09:56:04.744Z,28.81
2022-08-05T09:58:34.006Z,28.87
2022-08-05T10:01:14.709Z,28.95
2022-08-05T10:04:10.701Z,28.72
2022-08-05T10:06:59.051Z,28.50
2022-08-05T10:09:29.846Z,28.56
2022-08-05T10:12:30.120Z,28.59
2022-08-05T10:15:28.405Z,28.62
2022-08-05T10:18:17.666Z,28.61
2022-08-05T10:20:52.868Z,28.77
2022-08-05T10:23:55.664Z,28.77
2022-08-05T10:26:14.857Z,28.64
2022-08-05T10:28:46.491Z,28.66
2022-08-05T10:32:54.349Z,28.73
2022-08-05T10:34:08.095Z,28.73
2022-08-05T10:36:40.302Z,28.54
2022-08-05T10:39:15.482Z,28.49
2022-08-05T10:42:03.664Z,28.42
2022-08-05T10:44:33.429Z,28.41
2022-08-05T10:47:26.487Z,28.39
2022-08-05T10:50:28.047Z,28.23
2022-08-05T10:53:04.183Z,28.30
2022-08-05T10:56:03.826Z,28.42
2022-08-05T10:58:22.066Z,28.42
2022-08-05T11:01:08.262Z,28.23
2022-08-05T11:04:12.645Z,28.10
2022-08-05T11:07:05.143Z,28.05
2022-08-05T11:09:48.139Z,27.98
2022-08-05T11:12:41.251Z,27.95
2022-08-05T11:15:21.371Z,27.85
2022-08-05T11:17:59.746Z,27.86
2022-08-05T11:20:33.110Z,27.87
2022-08-05T11:23:06.106Z,27.80
2022-08-05T11:26:05.849Z,27.77
2022-08-05T11:28:36.185Z,27.79
2022-08-05T11:31:06.143Z,27.80
2022-08-05T11:33:47.840Z,27.75
2022-08-05T11:36:34.405Z,27.73
2022-08-05T11:39:09.752Z,27.72
2022-08-05T11:42:01.370Z,27.74
2022-08-05T11:44:41.142Z,27.67
2022-08-05T11:47:49.511Z,27.56
2022-08-05T11:50:14.237Z,27.55
2022-08-05T11:52:43.961Z,27.54
2022-08-05T11:55:15.609Z,27.53
2022-08-05T11:58:10.760Z,27.47
2022-08-05T12:00:38.447Z,27.45
2022-08-05T12:03:31.632Z,27.44
2022-08-05T12:06:06.702Z,27.39
2022-08-05T12:08:50.986Z,27.48
2022-08-05T12:11:39.765Z,27.44
2022-08-05T12:14:10.569Z,27.38
2022-08-05T12:16:45.623Z,27.33
2022-08-05T12:20:26.185Z,27.38
2022-08-05T12:22:09.490Z,27.27
2022-08-05T12:24:49.570Z,27.30
2022-08-05T12:27:32.858Z,27.14
2022-08-05T12:30:15.589Z,27.26
2022-08-05T12:32:51.846Z,27.22
2022-08-05T12:35:22.653Z,27.13
2022-08-05T12:37:53.342Z,26.94
2022-08-05T12:40:29.854Z,26.80
2022-08-05T12:42:59.732Z,26.68
2022-08-05T12:45:49.591Z,26.36
2022-08-05T12:48:27.398Z,26.48
2022-08-05T12:52:10.192Z,26.34
2022-08-05T12:54:16.673Z,26.43
2022-08-05T12:56:53.697Z,26.43
2022-08-05T12:59:46.723Z,26.46
2022-08-05T13:02:16.969Z,26.49
2022-08-05T13:04:54.356Z,26.45
2022-08-05T13:07:57.761Z,26.45
2022-08-05T13:10:19.951Z,26.43
2022-08-05T13:12:57.183Z,26.35
2022-08-05T13:15:36.051Z,26.42
2022-08-05T13:18:20.512Z,26.42
2022-08-05T13:20:50.315Z,26.40
2022-08-05T13:23:22.682Z,26.30
2022-08-05T13:25:59.206Z,26.11
2022-08-05T13:28:32.365Z,26.06
2022-08-05T13:31:10.875Z,26.05
2022-08-05T13:34:22.451Z,26.03
2022-08-05T13:36:32.198Z,26.04
2022-08-05T13:39:03.039Z,25.98
2022-08-05T13:41:52.513Z,26.08
2022-08-05T13:44:22.145Z,25.63
2022-08-05T13:47:02.483Z,26.07
2022-08-05T13:49:35.387Z,26.03
2022-08-05T13:52:19.947Z,25.87
2022-08-05T13:55:01.055Z,25.86
2022-08-05T13:57:51.331Z,25.76
2022-08-05T14:00:18.997Z,25.60
2022-08-05T14:03:01.032Z,25.74
2022-08-05T14:06:04.587Z,25.63
2022-08-05T14:08:20.894Z,25.59
2022-08-05T14:11:03.249Z,25.46
2022-08-05T14:13:48.140Z,25.40
2022-08-05T14:16:17.290Z,25.38
2022-08-05T14:18:50.465Z,25.26
2022-08-05T14:22:08.321Z,25.12
2022-08-05T14:24:11.736Z,24.90
2022-08-05T14:26:51.376Z,24.89
2022-08-05T14:29:31.301Z,24.72
2022-08-05T14:32:12.235Z,24.58
2022-08-05T14:34:48.665Z,24.36
2022-08-05T14:37:45.278Z,24.10
2022-08-05T14:40:16.669Z,23.91
2022-08-05T14:42:46.879Z,23.69
2022-08-05T14:45:17.925Z,23.50
2022-08-05T14:48:04.205Z,23.30
2022-08-05T14:50:36.081Z,23.25
2022-08-05T14:53:09.804Z,23.04
2022-08-05T14:55:40.081Z,22.84
2022-08-05T14:58:13.698Z,22.74
2022-08-05T15:00:58.459Z,22.48
2022-08-05T15:03:33.606Z,22.36
2022-08-05T15:06:07.563Z,22.06
2022-08-05T15:09:01.226Z,21.69
2022-08-05T15:11:51.809Z,21.89
2022-08-05T15:14:34.768Z,21.26
2022-08-05T15:17:09.889Z,21.60
2022-08-05T15:19:55.301Z,21.47
2022-08-05T15:22:27.087Z,21.44
2022-08-05T15:25:00.017Z,21.31
2022-08-05T15:27:42.722Z,20.96
2022-08-05T15:30:16.498Z,21.02
2022-08-05T15:32:45.276Z,20.85
2022-08-05T15:35:14.880Z,20.77
2022-08-05T15:38:32.798Z,20.74
2022-08-05T15:40:58.761Z,20.78
2022-08-05T15:43:21.938Z,20.22
2022-08-05T15:46:00.131Z,20.59
2022-08-05T15:48:30.783Z,20.43
2022-08-05T15:51:03.327Z,20.45
2022-08-05T15:53:38.563Z,20.36
2022-08-05T15:56:22.906Z,20.28
2022-08-05T15:58:54.447Z,20.33
2022-08-05T16:01:29.291Z,20.22
2022-08-05T16:03:58.488Z,20.08
2022-08-05T16:06:27.735Z,20.13
2022-08-05T16:08:56.756Z,20.03
2022-08-05T16:11:42.449Z,19.98
2022-08-05T16:14:17.499Z,19.86
2022-08-05T16:16:48.120Z,19.81
2022-08-05T16:19:25.627Z,19.75
2022-08-05T16:22:06.712Z,19.46
2022-08-05T16:24:40.574Z,19.51
2022-08-05T16:27:16.316Z,19.46
2022-08-05T16:29:50.450Z,19.48
2022-08-05T16:32:28.568Z,19.39
2022-08-05T16:35:03.452Z,19.26
2022-08-05T16:38:13.677Z,19.25
2022-08-05T16:40:26.464Z,19.14
2022-08-05T16:42:57.976Z,19.09
2022-08-05T16:46:06.894Z,19.10
2022-08-05T16:48:25.581Z,19.08
2022-08-05T16:50:55.708Z,19.05
2022-08-05T16:53:31.832Z,19.01
2022-08-05T16:56:01.582Z,18.93
2022-08-05T16:58:31.008Z,18.96
2022-08-05T17:01:00.655Z,18.86
2022-08-05T17:03:29.298Z,18.71
2022-08-05T17:06:01.246Z,18.76
2022-08-05T17:08:35.903Z,18.69
2022-08-05T17:11:28.106Z,18.48
2022-08-05T17:14:06.186Z,18.27
2022-08-05T17:16:37.176Z,18.50
2022-08-05T17:19:09.576Z,18.34
2022-08-05T17:21:42.647Z,18.43
2022-08-05T17:24:35.154Z,18.36
2022-08-05T17:27:09.357Z,18.16
2022-08-05T17:29:40.868Z,18.09
2022-08-05T17:32:11.527Z,18.09
2022-08-05T17:34:48.233Z,18.13
2022-08-05T17:37:41.473Z,18.07
2022-08-05T17:40:15.425Z,17.99
2022-08-05T17:42:49.749Z,17.86
2022-08-05T17:45:22.911Z,17.80
2022-08-05T17:47:55.751Z,17.76
2022-08-05T17:50:30.806Z,17.74
2022-08-05T17:53:02.258Z,17.73
2022-08-05T17:55:37.639Z,17.67
2022-08-05T17:58:12.609Z,17.79
2022-08-05T18:00:47.812Z,17.78
2022-08-05T18:06:12.341Z,17.57
2022-08-05T18:08:52.518Z,17.68
2022-08-05T18:11:24.626Z,17.54
2022-08-05T18:14:13.445Z,17.46
2022-08-05T18:16:46.806Z,17.48
2022-08-05T18:19:22.767Z,17.41
2022-08-05T18:22:08.775Z,17.36
2022-08-05T18:24:40.293Z,17.40
2022-08-05T18:27:12.824Z,17.55
2022-08-05T18:29:53.983Z,17.51
2022-08-05T18:32:27.957Z,17.50
2022-08-05T18:34:58.217Z,17.44
2022-08-05T18:37:34.151Z,17.40
2022-08-05T18:40:33.588Z,17.39
2022-08-05T18:42:59.792Z,17.40
2022-08-05T18:45:41.608Z,17.32
2022-08-05T18:48:12.017Z,17.22
2022-08-05T18:52:03.317Z,17.22
2022-08-05T18:54:10.671Z,17.09
2022-08-05T18:56:41.316Z,17.01
2022-08-05T18:59:43.523Z,16.44
2022-08-05T19:02:28.267Z,16.90
2022-08-05T19:06:05.762Z,16.85
2022-08-05T19:07:53.554Z,16.62
2022-08-05T19:10:26.583Z,16.83
2022-08-05T19:12:58.716Z,16.74
2022-08-05T19:15:59.323Z,16.72
2022-08-05T19:18:21.871Z,16.75
2022-08-05T19:20:56.515Z,16.84
2022-08-05T19:24:06.053Z,16.60
2022-08-05T19:26:15.471Z,16.83
2022-08-05T19:28:45.476Z,16.74
2022-08-05T19:31:17.772Z,16.78
2022-08-05T19:33:56.926Z,16.72
2022-08-05T19:36:26.940Z,16.63
2022-08-05T19:39:01.157Z,16.64
2022-08-05T19:41:58.232Z,16.66
2022-08-05T19:44:20.521Z,16.52
2022-08-05T19:46:50.346Z,16.34
2022-08-05T19:49:19.514Z,16.39
2022-08-05T19:52:08.628Z,16.42
2022-08-05T19:54:37.204Z,16.32
2022-08-05T19:57:09.522Z,16.41
2022-08-05T19:59:56.405Z,16.43
2022-08-05T20:02:31.680Z,16.44
2022-08-05T20:05:00.535Z,16.33
2022-08-05T20:07:47.965Z,16.40
2022-08-05T20:10:22.317Z,16.38
2022-08-05T20:12:53.037Z,16.25
2022-08-05T20:15:23.246Z,16.29
2022-08-05T20:18:33.103Z,16.26
2022-08-05T20:21:00.300Z,16.20
2022-08-05T20:23:39.702Z,16.18
2022-08-05T20:26:19.131Z,16.15
2022-08-05T20:28:50.962Z,16.06
2022-08-05T20:31:28.402Z,16.20
2022-08-05T20:34:10.007Z,15.87
2022-08-05T20:36:39.181Z,16.19
2022-08-05T20:39:16.279Z,16.06
2022-08-05T20:41:47.769Z,16.00
2022-08-05T20:44:30.714Z,15.97
2022-08-05T20:47:04.953Z,15.90
2022-08-05T20:49:39.476Z,15.80
2022-08-05T20:52:10.707Z,15.93
2022-08-05T20:54:43.092Z,15.75
2022-08-05T20:57:42.157Z,15.80
2022-08-05T21:00:40.377Z,15.78
2022-08-05T21:03:07.157Z,15.88
2022-08-05T21:05:48.326Z,15.82
2022-08-05T21:08:33.125Z,15.83
2022-08-05T21:11:12.391Z,15.86
2022-08-05T21:13:48.108Z,15.85
2022-08-05T21:16:30.757Z,15.82
2022-08-05T21:19:01.556Z,15.77
2022-08-05T21:21:39.585Z,15.89
2022-08-05T21:24:15.689Z,15.79
2022-08-05T21:26:58.238Z,15.82
2022-08-05T21:29:31.857Z,15.76
2022-08-05T21:32:03.590Z,15.63
2022-08-05T21:34:32.894Z,15.61
2022-08-05T21:37:02.199Z,15.74
2022-08-05T21:39:34.482Z,15.66
2022-08-05T21:42:03.854Z,15.67
2022-08-05T21:44:32.979Z,15.57
2022-08-05T21:47:01.964Z,15.40
2022-08-05T21:50:00.199Z,15.62
2022-08-05T21:52:27.205Z,15.44
2022-08-05T21:55:06.486Z,15.45
2022-08-05T21:57:42.761Z,15.37
2022-08-05T22:00:13.626Z,15.44
2022-08-05T22:02:44.744Z,15.38
2022-08-05T22:05:15.463Z,15.31
2022-08-05T22:07:58.939Z,15.31
2022-08-05T22:10:31.799Z,15.35
2022-08-05T22:13:09.218Z,15.31
2022-08-05T22:16:02.035Z,15.00
2022-08-05T22:18:40.742Z,15.22
2022-08-05T22:21:20.033Z,15.35
2022-08-05T22:24:08.804Z,15.37
2022-08-05T22:27:00.473Z,15.40
2022-08-05T22:29:35.662Z,15.41
2022-08-05T22:32:10.075Z,15.39
2022-08-05T22:34:39.370Z,15.42
2022-08-05T22:37:10.075Z,15.31
2022-08-05T22:39:39.719Z,15.37
2022-08-05T22:42:12.405Z,15.34
2022-08-05T22:44:48.580Z,15.39
2022-08-05T22:47:30.426Z,15.46
2022-08-05T22:50:20.079Z,15.44
2022-08-05T22:52:53.617Z,15.39
2022-08-05T22:55:26.129Z,15.31
2022-08-05T22:57:55.565Z,15.37
2022-08-05T23:00:27.261Z,15.42
2022-08-05T23:02:58.048Z,15.35
2022-08-05T23:05:27.525Z,15.44
2022-08-05T23:07:56.426Z,15.37
2022-08-05T23:10:25.516Z,15.38
2022-08-05T23:12:55.866Z,15.34
2022-08-05T23:15:35.454Z,15.23
2022-08-05T23:18:15.828Z,15.26
2022-08-05T23:20:45.933Z,15.23
2022-08-05T23:23:15.090Z,15.25
2022-08-05T23:25:52.569Z,15.01
2022-08-05T23:28:29.089Z,15.08
2022-08-05T23:31:17.179Z,15.09
2022-08-05T23:34:03.994Z,15.18
2022-08-05T23:36:39.930Z,15.20
2022-08-05T23:39:16.621Z,15.10
2022-08-05T23:41:53.893Z,15.37
2022-08-05T23:44:31.065Z,15.63
2022-08-05T23:47:02.444Z,16.36
2022-08-05T23:49:45.558Z,16.85
2022-08-05T23:52:30.710Z,17.13
2022-08-05T23:55:07.127Z,16.98
2022-08-05T23:57:37.693Z,16.74
